Weather observations for the past three days for
MOUNT WILSON
Imperial (Metric)
Date Time (pdt) Wind (mph) Vis. (mi.) Weather Sky Cond. Temperature (ºF) Relative Humidity Wind Chill (°F) Heat Index (°F) Pressure Precipitation (in)
Air Dwpt 6 hour altimeter (in) sea level (mb) 1 hr 3 hr 6 hr
Max. Min.
01 13:20 SW 7 G 13 0.00 NULL NULL 68 26.6 21% 0 0.0
01 12:20 SW 8 G 13 0.00 NULL NULL 66.2 32 28% 0 0.0
01 11:20 SW 7 0.00 NULL NULL 64.4 32 30% 0 0.0
01 10:20 SW 7 0.00 NULL NULL 62.6 28.4 27% 0 0.0
01 09:20 SW 3 G 7 0.00 NULL NULL 59 21.2 23% 0 0.0
01 08:20 SW 5 0.00 NULL NULL 59 17.6 20% 0 0.0
01 07:20 SW 5 G 7 0.00 NULL NULL 57.2 17.6 21% 0 0.0
01 06:20 SW 6 G 12 0.00 NULL NULL 57.2 17.6 21% 0 0.0
01 05:20 SW 7 0.00 NULL NULL 57.2 19.4 23% 0 0.0
01 04:20 SW 6 0.00 NULL NULL 57.2 17.6 21% 0 0.0
01 03:20 SW 7 G 12 0.00 NULL NULL 57.2 14 18% 0 0.0
01 02:20 SW 8 0.00 NULL NULL 59 17.6 20% 0 0.0
01 01:20 SW 6 G 7 0.00 NULL NULL 59 19.4 21% 0 0.0
01 00:20 SW 5 G 8 0.00 NULL NULL 59 24.8 27% 0 0.0
31 23:20 SW 7 0.00 NULL NULL 60.8 15.8 17% 0 0.0
31 22:20 SW 8 0.00 NULL NULL 60.8 17.6 19% 0 0.0
31 21:20 SW 7 G 8 0.00 NULL NULL 60.8 14 16% 0 0.0
31 20:20 SW 9 G 13 0.00 NULL NULL 62.6 17.6 17% 0 0.0
31 19:20 SW 8 0.00 NULL NULL 62.6 24.8 24% 0 0.0
31 18:20 SW 6 G 7 0.00 NULL NULL 64.4 50 60% 0 0.0
31 17:20 SW 7 0.00 NULL NULL 66.2 53.6 64% 0 0.0
31 16:20 SW 6 0.00 NULL NULL 69.8 55.4 60% 0 0.0
31 15:20 SW 6 0.00 NULL NULL 69.8 55.4 60% 0 0.0
31 14:20 SW 8 G 12 0.00 NULL NULL 69.8 53.6 57% 0 0.0
31 13:20 SW 6 G 12 0.00 NULL NULL 68 57.2 69% 0 0.0
31 12:20 SW 6 G 8 0.00 NULL NULL 68 57.2 69% 0 0.0
31 11:20 SW 5 G 7 0.00 NULL NULL 68 50 53% 0 0.0
31 10:20 SW 5 G 6 0.00 NULL NULL 66.2 37.4 35% 0 0.0
31 09:20 SW 3 0.00 NULL NULL 64.4 26.6 24% 0 0.0
31 08:20 SW 3 0.00 NULL NULL 62.6 26.6 25% 0 0.0
31 07:20 S 2 0.00 NULL NULL 60.8 24.8 25% 0 0.0
31 06:20 SW 6 G 8 0.00 NULL NULL 62.6 23 22% 0 0.0
31 05:20 SW 6 G 7 0.00 NULL NULL 62.6 23 22% 0 0.0
31 04:20 SW 6 G 7 0.00 NULL NULL 62.6 23 22% 0 0.0
31 03:20 SW 8 0.00 NULL NULL 62.6 24.8 24% 0 0.0
31 02:20 SW 7 G 8 0.00 NULL NULL 64.4 23 21% 0 0.0
31 01:20 SW 6 G 7 0.00 NULL NULL 64.4 26.6 24% 0 0.0
31 00:20 SW 6 0.00 NULL NULL 66.2 19.4 17% 0 0.0
30 23:20 SW 7 0.00 NULL NULL 66.2 24.8 21% 0 0.0
30 22:20 SW 7 0.00 NULL NULL 66.2 33.8 30% 0 0.0
30 21:20 SW 6 G 8 0.00 NULL NULL 66.2 33.8 30% 0 0.0
30 20:20 SW 5 G 6 0.00 NULL NULL 68 32 26% 0 0.0
30 19:20 W 5 G 7 0.00 NULL NULL 69.8 41 35% 0 0.0
30 18:20 W 6 0.00 NULL NULL 73.4 50 44% 0 0.0
30 17:20 SW 7 0.00 NULL NULL 73.4 50 44% 0 0.0
30 16:20 SW 7 0.00 NULL NULL 75.2 55.4 50% 78 0 0.0
30 15:20 SW 6 0.00 NULL NULL 75.2 55.4 50% 78 0 0.0
30 14:20 SW 6 G 12 0.00 NULL NULL 73.4 57.2 57% 0 0.0
30 13:20 SW 6 0.00 NULL NULL 73.4 55.4 53% 0 0.0
30 12:20 SW 7 0.00 NULL NULL 73.4 57.2 57% 0 0.0
30 11:20 SW 5 G 8 0.00 NULL NULL 73.4 48.2 41% 0 0.0
30 10:20 W 2 0.00 NULL NULL 71.6 48.2 44% 0 0.0
30 09:20 SW 2 0.00 NULL NULL 69.8 46.4 43% 0 0.0
30 08:20 SW 1 0.00 NULL NULL 68 46.4 46% 0 0.0
30 07:20 W 6 G 6 0.00 NULL NULL 68 46.4 46% 0 0.0
30 05:20 Calm 0.00 NULL NULL 66.2 46.4 49% 0 0.0
30 04:20 Calm 0.00 NULL NULL 66.2 46.4 49% 0 0.0
30 03:20 SW 1 0.00 NULL NULL 66.2 46.4 49% 0 0.0
30 02:20 S 2 0.00 NULL NULL 66.2 46.4 49% 0 0.0
30 01:20 S 2 0.00 NULL NULL 66.2 46.4 49% 0 0.0
30 00:20 SW 5 G 7 0.00 NULL NULL 68 48.2 49% 0 0.0
29 23:20 SW 3 0.00 NULL NULL 68 48.2 49% 0 0.0
29 22:20 SW 5 0.00 NULL NULL 68 46.4 46% 0 0.0
29 21:20 SW 5 G 6 0.00 NULL NULL 68 46.4 46% 0 0.0
29 20:20 SW 6 G 7 0.00 NULL NULL 68 50 53% 0 0.0
29 19:20 SW 3 0.00 NULL NULL 71.6 55.4 57% 0 0.0
29 18:20 SW 5 G 8 0.00 NULL NULL 75.2 53.6 47% 78 0 0.0
29 17:20 SW 6 0.00 NULL NULL 77 57.2 51% 79 0 0.0
29 16:20 SW 7 0.00 NULL NULL 78.8 59 51% 80 0 0.0
29 15:20 SW 7 G 13 0.00 NULL NULL 78.8 59 51% 80 0 0.0
29 14:20 SW 7 G 12 0.00 NULL NULL 78.8 57.2 48% 80 0 0.0
Date Time (pdt) Wind (mph) Vis. (mi.) Weather Sky Cond. Air Dwpt Max. Min. Relative Humidity Wind Chill (°F) Heat Index (°F) altimeter (in) sea level (mb) 1 hr 3 hr 6 hr
6 hour
Temperature (ºF) Pressure Precipitation (in)